Time;durP1;ratioP1;P1;durP2;ratioP2;P2;SDS_P1;SDS_P2;PMS_P1;PMS_P2;Temp;Humidity;BMP_temperature;BMP_pressure;BME280_temperature;BME280_humidity;BME280_pressure;Samples;Min_cycle;Max_cycle;Signal;HPM_P1;HPM_P2
2021/04/04 00:01:20;;;;;;;3.73;1.73;;;3.30;1.00;;;;;;5064834;28;20548;-70
2021/04/04 00:03:47;;;;;;;2.17;1.35;;;3.20;1.00;;;;;;5072971;28;20501;-70
2021/04/04 00:06:20;;;;;;;2.90;1.50;;;3.20;1.00;;;;;;5073967;28;20182;-73
2021/04/04 00:08:47;;;;;;;1.80;1.70;;;;;;;;;;5073793;28;20241;-74
2021/04/04 00:11:13;;;;;;;3.03;2.17;;;;;;;;;;5063561;28;20174;-74
2021/04/04 00:13:40;;;;;;;4.60;2.00;;;3.00;1.00;;;;;;5054077;28;20806;-73
2021/04/04 00:16:06;;;;;;;3.67;1.88;;;2.90;1.00;;;;;;5057802;28;20175;-73
2021/04/04 00:18:32;;;;;;;2.87;1.90;;;2.90;1.00;;;;;;5071545;28;20198;-73
2021/04/04 00:20:58;;;;;;;3.22;1.92;;;2.90;1.00;;;;;;5073831;28;20649;-73
2021/04/04 00:23:24;;;;;;;2.53;2.07;;;;;;;;;;5073672;28;20176;-74
2021/04/04 00:25:50;;;;;;;4.00;2.50;;;;;;;;;;5055641;28;20275;-73
2021/04/04 00:28:16;;;;;;;4.63;2.20;;;2.80;1.00;;;;;;5053515;28;20160;-73
2021/04/04 00:30:42;;;;;;;3.83;2.00;;;2.70;1.00;;;;;;5053949;28;20509;-73
2021/04/04 00:33:08;;;;;;;2.72;2.38;;;2.70;1.00;;;;;;5053839;28;20570;-73
2021/04/04 00:35:44;;;;;;;2.77;1.73;;;;;;;;;;5070599;28;20186;-73
2021/04/04 00:38:10;;;;;;;3.55;2.97;;;2.70;1.00;;;;;;5073557;28;20734;-73
2021/04/04 00:40:44;;;;;;;9.98;3.97;;;;;;;;;;5069251;28;20206;-74
2021/04/04 00:43:14;;;;;;;5.38;3.55;;;;;;;;;;5068040;28;20638;-74
2021/04/04 00:45:40;;;;;;;6.97;3.50;;;2.60;1.00;;;;;;5067965;28;20282;-74
2021/04/04 00:48:07;;;;;;;8.00;3.90;;;2.60;1.00;;;;;;5053278;28;20156;-74
2021/04/04 00:50:36;;;;;;;6.13;3.10;;;2.70;1.00;;;;;;5053762;28;20179;-73
2021/04/04 00:53:03;;;;;;;10.52;4.25;;;2.60;1.00;;;;;;5054547;28;20183;-74
2021/04/04 00:55:30;;;;;;;12.85;5.45;;;;;;;;;;5072628;28;20163;-74
2021/04/04 00:57:56;;;;;;;55.50;8.20;;;;;;;;;;5068673;28;20179;-74
2021/04/04 01:00:24;;;;;;;4.30;2.70;;;2.50;1.00;;;;;;5070196;28;20255;-74
2021/04/04 01:02:53;;;;;;;4.65;3.08;;;;;;;;;;5073435;28;20175;-74
2021/04/04 01:05:25;;;;;;;7.28;3.05;;;2.50;1.00;;;;;;5062069;28;20171;-74
2021/04/04 01:07:51;;;;;;;6.18;2.92;;;;;;;;;;5057061;28;20160;-73
2021/04/04 01:10:18;;;;;;;7.00;4.38;;;2.50;1.00;;;;;;5056612;28;20163;-73
2021/04/04 01:13:04;;;;;;;7.75;3.65;;;2.40;1.00;;;;;;5056818;28;20683;-74
2021/04/04 01:15:34;;;;;;;8.30;3.97;;;2.40;1.00;;;;;;5075893;28;20630;-74
2021/04/04 01:18:14;;;;;;;8.63;4.25;;;2.40;1.00;;;;;;5076452;28;20191;-73
2021/04/04 01:20:51;;;;;;;8.65;3.75;;;2.40;1.00;;;;;;5076975;28;20191;-70
2021/04/04 01:23:26;;;;;;;7.60;4.03;;;;;;;;;;5075057;28;20707;-70
2021/04/04 01:26:07;;;;;;;7.95;3.80;;;2.30;1.00;;;;;;5076336;28;20272;-70
2021/04/04 01:28:37;;;;;;;7.82;3.58;;;2.30;1.00;;;;;;5070478;28;20166;-70
2021/04/04 01:31:06;;;;;;;9.43;2.92;;;2.40;1.00;;;;;;5065203;28;20252;-70
2021/04/04 01:33:34;;;;;;;5.78;2.80;;;2.40;1.00;;;;;;5076587;28;20213;-70
2021/04/04 01:36:02;;;;;;;7.63;3.65;;;2.30;1.00;;;;;;5076807;28;20178;-70
2021/04/04 01:38:30;;;;;;;7.70;3.92;;;2.30;1.00;;;;;;5061086;28;20223;-70
2021/04/04 01:41:19;;;;;;;7.38;2.83;;;;;;;;;;5058408;28;20199;-70
2021/04/04 01:43:46;;;;;;;2.85;1.75;;;;;;;;;;5007852;28;20201;-70
2021/04/04 01:46:13;;;;;;;6.72;3.47;;;;;;;;;;5007350;28;20216;-70
2021/04/04 01:48:40;;;;;;;9.70;3.92;;;;;;;;;;5014288;28;20173;-71
2021/04/04 01:51:09;;;;;;;7.55;3.65;;;2.20;1.00;;;;;;4997239;28;20257;-74
2021/04/04 01:53:36;;;;;;;5.50;3.22;;;2.10;1.00;;;;;;4994713;28;20638;-73
2021/04/04 01:56:02;;;;;;;5.15;2.40;;;;;;;;;;4994573;28;20853;-74
2021/04/04 01:58:31;;;;;;;5.05;2.47;;;2.00;1.00;;;;;;4994593;28;20213;-74
2021/04/04 02:00:58;;;;;;;5.65;3.45;;;;;;;;;;4995895;28;20696;-74
2021/04/04 02:03:24;;;;;;;12.40;4.47;;;2.10;1.00;;;;;;4995513;28;20201;-74
2021/04/04 02:05:52;;;;;;;5.82;3.90;;;2.10;1.00;;;;;;5012683;28;20181;-74
2021/04/04 02:08:19;;;;;;;5.88;2.95;;;;;;;;;;5013579;28;20182;-73
2021/04/04 02:10:45;;;;;;;15.18;3.75;;;;;;;;;;5013851;28;20528;-74
2021/04/04 02:13:13;;;;;;;5.97;3.60;;;;;;;;;;5013602;28;20601;-70
2021/04/04 02:15:40;;;;;;;8.05;3.53;;;2.00;1.00;;;;;;5003954;28;20708;-70
2021/04/04 02:18:10;;;;;;;7.35;3.03;;;2.00;1.00;;;;;;5004308;28;20205;-70
2021/04/04 02:20:38;;;;;;;4.22;2.70;;;;;;;;;;5021469;28;20216;-73
2021/04/04 02:23:10;;;;;;;5.57;2.92;;;1.90;1.00;;;;;;5055904;28;20203;-74
2021/04/04 02:25:36;;;;;;;3.47;2.75;;;;;;;;;;5073996;28;20171;-74
2021/04/04 02:28:04;;;;;;;5.40;2.95;;;1.80;1.00;;;;;;5075450;28;20163;-74
2021/04/04 02:30:33;;;;;;;6.88;3.25;;;1.80;1.00;;;;;;5061729;28;20261;-74
2021/04/04 02:33:00;;;;;;;7.70;3.72;;;;;;;;;;5063242;28;20271;-73
2021/04/04 02:35:41;;;;;;;14.57;4.47;;;1.70;1.00;;;;;;5055470;28;20163;-74
2021/04/04 02:38:23;;;;;;;3.97;2.90;;;1.60;1.00;;;;;;5055659;28;20800;-70
2021/04/04 02:40:50;;;;;;;5.07;3.00;;;1.60;1.00;;;;;;5070693;28;20198;-73
2021/04/04 02:43:17;;;;;;;6.97;3.10;;;1.60;1.00;;;;;;5074001;28;20191;-73
2021/04/04 02:45:45;;;;;;;5.63;2.90;;;1.60;1.00;;;;;;5072524;28;20182;-74
2021/04/04 02:48:16;;;;;;;5.75;2.55;;;1.70;1.00;;;;;;5075106;28;20163;-71
2021/04/04 02:50:44;;;;;;;1.88;1.77;;;1.70;1.00;;;;;;5074533;28;20225;-70
2021/04/04 02:53:12;;;;;;;3.08;2.15;;;1.80;1.00;;;;;;5075375;28;20202;-74
2021/04/04 02:55:40;;;;;;;7.95;3.50;;;1.80;1.00;;;;;;5074868;28;20709;-73
2021/04/04 02:58:08;;;;;;;5.40;2.78;;;1.80;1.00;;;;;;5075171;28;20640;-74
2021/04/04 03:00:36;;;;;;;14.95;4.18;;;1.90;1.00;;;;;;5058870;28;20293;-74
2021/04/04 03:03:04;;;;;;;10.57;3.03;;;1.90;1.00;;;;;;5074592;28;20569;-74
2021/04/04 03:05:33;;;;;;;4.20;2.22;;;1.90;1.00;;;;;;5074716;28;20187;-74
2021/04/04 03:08:02;;;;;;;6.50;3.40;;;1.90;1.00;;;;;;5074643;28;20159;-71
2021/04/04 03:10:32;;;;;;;10.70;3.00;;;1.90;1.00;;;;;;5072668;28;20182;-70
2021/04/04 03:12:59;;;;;;;4.30;2.80;;;1.90;1.00;;;;;;5074244;28;20652;-71
2021/04/04 03:15:27;;;;;;;4.20;2.75;;;2.00;1.00;;;;;;5074299;28;20191;-71
2021/04/04 03:17:55;;;;;;;8.65;2.90;;;2.00;1.00;;;;;;5074335;28;20530;-70
2021/04/04 03:20:22;;;;;;;4.80;2.38;;;2.00;1.00;;;;;;5072435;28;20203;-71
2021/04/04 03:22:49;;;;;;;10.18;2.60;;;2.00;1.00;;;;;;5074523;28;20548;-70
2021/04/04 03:25:17;;;;;;;5.30;2.97;;;2.00;1.00;;;;;;5072775;28;20726;-70
2021/04/04 03:27:46;;;;;;;3.55;2.55;;;2.00;1.00;;;;;;5054367;28;20166;-70
2021/04/04 03:30:34;;;;;;;5.95;2.72;;;;;;;;;;5054885;28;20652;-70
2021/04/04 03:33:01;;;;;;;5.95;2.80;;;2.10;1.00;;;;;;5054106;28;20188;-71
2021/04/04 03:35:33;;;;;;;6.28;3.08;;;2.00;1.00;;;;;;5054176;28;20163;-71
2021/04/04 03:38:01;;;;;;;9.05;3.22;;;2.00;1.00;;;;;;5054485;28;20156;-71
2021/04/04 03:40:28;;;;;;;4.75;2.53;;;2.00;1.00;;;;;;5053659;28;20203;-71
2021/04/04 03:42:56;;;;;;;9.95;3.45;;;2.00;1.00;;;;;;5055611;28;20152;-70
2021/04/04 03:45:22;;;;;;;5.15;2.95;;;1.90;1.00;;;;;;5069305;28;20987;-70
2021/04/04 03:47:49;;;;;;;2.72;2.05;;;1.90;1.00;;;;;;5070944;28;20700;-70
2021/04/04 03:50:21;;;;;;;5.40;2.40;;;2.00;1.00;;;;;;5073890;28;20663;-71
2021/04/04 03:52:50;;;;;;;4.30;2.90;;;2.00;1.00;;;;;;5074177;28;20261;-73
2021/04/04 03:55:21;;;;;;;4.35;3.80;;;1.90;1.00;;;;;;5074007;28;20151;-74
2021/04/04 03:57:49;;;;;;;5.22;2.58;;;1.90;1.00;;;;;;5072500;28;20210;-74
2021/04/04 04:00:30;;;;;;;3.00;2.63;;;1.90;1.00;;;;;;5072089;28;20167;-74
2021/04/04 04:02:57;;;;;;;4.20;2.63;;;1.90;1.00;;;;;;5073406;28;20254;-74
2021/04/04 04:05:24;;;;;;;8.75;3.05;;;2.00;1.00;;;;;;5073915;28;20289;-74
2021/04/04 04:07:56;;;;;;;3.95;2.50;;;2.00;1.00;;;;;;5063796;28;20194;-74
2021/04/04 04:10:23;;;;;;;4.95;2.85;;;2.00;1.00;;;;;;5053612;28;20194;-74
2021/04/04 04:12:49;;;;;;;8.90;4.25;;;2.00;1.00;;;;;;5053779;28;20160;-74
2021/04/04 04:15:17;;;;;;;10.00;4.15;;;2.00;1.00;;;;;;5056345;28;20168;-74
2021/04/04 04:17:46;;;;;;;8.93;3.42;;;2.00;1.00;;;;;;5073511;28;20244;-74
2021/04/04 04:20:13;;;;;;;11.40;4.25;;;2.00;1.00;;;;;;5073639;28;20193;-74
2021/04/04 04:22:40;;;;;;;5.80;2.70;;;2.00;1.00;;;;;;5062125;28;20171;-74
2021/04/04 04:25:10;;;;;;;6.53;2.22;;;2.10;1.00;;;;;;5073424;28;20169;-74
2021/04/04 04:27:56;;;;;;;9.30;2.63;;;2.10;1.00;;;;;;5073517;28;20166;-74
2021/04/04 04:30:23;;;;;;;8.63;3.53;;;2.10;1.00;;;;;;5073244;28;20174;-74
2021/04/04 04:32:54;;;;;;;2.58;1.50;;;2.20;1.00;;;;;;5073402;28;20629;-74
2021/04/04 04:35:22;;;;;;;4.68;2.60;;;2.20;1.00;;;;;;5073591;28;20151;-74
2021/04/04 04:37:48;;;;;;;2.72;1.70;;;;;;;;;;5076007;28;20186;-71
2021/04/04 04:40:15;;;;;;;5.72;2.67;;;2.00;1.00;;;;;;5077451;28;20161;-70
2021/04/04 04:42:42;;;;;;;9.43;2.55;;;1.90;1.00;;;;;;5070812;28;20167;-71
2021/04/04 04:45:20;;;;;;;7.05;3.17;;;1.90;1.00;;;;;;5066090;28;20645;-70
2021/04/04 04:47:46;;;;;;;14.68;4.53;;;;;;;;;;5069449;28;20262;-71
2021/04/04 04:50:14;;;;;;;12.80;4.80;;;1.70;1.00;;;;;;5057729;28;20158;-73
2021/04/04 04:53:07;;;;;;;11.75;5.15;;;1.60;1.00;;;;;;5056754;28;20171;-79
2021/04/04 04:56:07;;;;;;;8.77;5.30;;;1.60;1.00;;;;;;5057268;28;20522;-79
2021/04/04 04:59:01;;;;;;;13.23;6.43;;;1.60;1.00;;;;;;5058008;28;20186;-79
2021/04/04 05:01:33;;;;;;;22.30;6.60;;;1.50;1.00;;;;;;5071186;28;20195;-74
2021/04/04 05:03:58;;;;;;;10.75;5.60;;;1.50;1.00;;;;;;5062430;28;20182;-74
2021/04/04 05:06:25;;;;;;;35.23;4.10;;;;;;;;;;5056904;28;20164;-74
2021/04/04 05:08:52;;;;;;;11.82;4.03;;;1.60;1.00;;;;;;5057387;28;20235;-70
2021/04/04 05:11:19;;;;;;;9.77;5.22;;;1.50;1.00;;;;;;5056996;28;20633;-70
2021/04/04 05:13:45;;;;;;;11.45;5.22;;;1.60;1.00;;;;;;5068317;28;20274;-73
2021/04/04 05:16:13;;;;;;;22.92;5.53;;;1.60;1.00;;;;;;5071526;28;20188;-74
2021/04/04 05:18:49;;;;;;;11.10;4.78;;;1.70;1.00;;;;;;5078451;28;20214;-74
2021/04/04 05:21:29;;;;;;;7.13;4.15;;;1.80;1.00;;;;;;5063597;28;20213;-74
2021/04/04 05:24:08;;;;;;;13.23;4.35;;;;;;;;;;5064278;28;20178;-71
2021/04/04 05:26:54;;;;;;;10.43;4.13;;;1.90;1.00;;;;;;5056387;28;20522;-70
2021/04/04 05:29:20;;;;;;;11.50;5.13;;;;;;;;;;5056660;28;20195;-71
2021/04/04 05:31:49;;;;;;;14.55;5.97;;;2.10;1.00;;;;;;5056224;28;20492;-70
2021/04/04 05:34:17;;;;;;;21.05;6.75;;;2.10;1.00;;;;;;5056486;28;20184;-70
2021/04/04 05:36:55;;;;;;;8.40;4.38;;;2.20;1.00;;;;;;5056459;28;20164;-70
2021/04/04 05:39:22;;;;;;;5.25;3.25;;;;;;;;;;5056825;28;20163;-71
2021/04/04 05:41:53;;;;;;;3.72;3.05;;;2.30;1.00;;;;;;5056096;28;20199;-70
2021/04/04 05:44:24;;;;;;;5.57;3.10;;;2.40;1.00;;;;;;5056568;28;20245;-70
2021/04/04 05:46:55;;;;;;;12.35;3.97;;;2.50;1.00;;;;;;5062491;28;20233;-71
2021/04/04 05:49:38;;;;;;;6.43;3.30;;;2.50;1.00;;;;;;5075659;28;20221;-70
2021/04/04 05:52:21;;;;;;;7.30;4.00;;;2.50;1.00;;;;;;5076275;28;20241;-71
2021/04/04 05:54:57;;;;;;;16.80;4.40;;;2.50;1.00;;;;;;5070037;28;20183;-70
2021/04/04 05:57:40;;;;;;;6.00;3.17;;;2.60;1.00;;;;;;5056337;28;20179;-71
2021/04/04 06:00:08;;;;;;;10.80;4.28;;;2.70;1.00;;;;;;5055938;28;20171;-70
2021/04/04 06:02:56;;;;;;;10.15;3.80;;;2.80;1.00;;;;;;5055822;28;20266;-70
2021/04/04 06:05:45;;;;;;;10.90;4.75;;;3.00;1.00;;;;;;5054779;28;20175;-71
2021/04/04 06:08:14;;;;;;;9.05;3.58;;;3.10;1.00;;;;;;5063800;28;20187;-73
2021/04/04 06:10:53;;;;;;;4.60;3.17;;;3.20;1.00;;;;;;5088779;28;20179;-74
2021/04/04 06:13:22;;;;;;;5.90;3.10;;;;;;;;;;5075831;28;20197;-74
2021/04/04 06:16:14;;;;;;;16.75;3.40;;;3.50;1.00;;;;;;5073834;28;20194;-73
2021/04/04 06:19:00;;;;;;;17.05;3.40;;;3.70;1.00;;;;;;5075139;28;20580;-74
2021/04/04 06:21:41;;;;;;;8.30;3.80;;;3.90;1.00;;;;;;5075690;28;20195;-74
2021/04/04 06:24:16;;;;;;;7.30;4.47;;;4.00;1.00;;;;;;5057216;28;20290;-70
2021/04/04 06:27:16;;;;;;;11.55;4.07;;;4.20;1.00;;;;;;5055360;28;20161;-73
2021/04/04 06:30:20;;;;;;;3.55;3.20;;;4.40;1.00;;;;;;5055858;28;20172;-72
2021/04/04 06:32:56;;;;;;;5.07;2.80;;;4.60;1.00;;;;;;5055306;28;20247;-72
2021/04/04 06:35:58;;;;;;;8.27;2.97;;;4.80;1.00;;;;;;5074156;28;20163;-71
2021/04/04 06:38:41;;;;;;;4.45;3.00;;;4.90;1.00;;;;;;5031640;28;20184;-70
2021/04/04 06:41:20;;;;;;;6.13;3.70;;;5.20;1.00;;;;;;5032998;28;20239;-71
2021/04/04 06:44:07;;;;;;;5.90;3.57;;;5.40;1.00;;;;;;5027733;28;20646;-77
2021/04/04 06:46:36;;;;;;;8.80;3.95;;;5.70;1.00;;;;;;5020242;28;20431;-75
2021/04/04 06:49:43;;;;;;;5.30;3.60;;;5.90;1.00;;;;;;5023370;28;20208;-75
2021/04/04 06:53:03;;;;;;;9.70;3.93;;;6.20;1.00;;;;;;5027243;28;20426;-75
2021/04/04 06:56:07;;;;;;;11.40;4.30;;;6.60;1.00;;;;;;4977891;28;20409;-80
2021/04/04 06:59:06;;;;;;;11.10;3.97;;;6.80;1.00;;;;;;4974266;28;20425;-81
2021/04/04 07:02:07;;;;;;;9.27;3.80;;;6.80;1.00;;;;;;4898908;29;20476;-81
2021/04/04 07:05:09;;;;;;;11.50;4.23;;;7.00;1.00;;;;;;4897641;29;21415;-81
2021/04/04 07:07:49;;;;;;;7.00;3.60;;;7.10;1.00;;;;;;4897804;29;20433;-74
2021/04/04 07:10:35;;;;;;;10.70;4.70;;;7.20;1.00;;;;;;4896695;29;20441;-73
2021/04/04 07:13:04;;;;;;;8.83;4.07;;;7.20;1.00;;;;;;4897435;29;20417;-72
2021/04/04 07:18:57;;;;;;;11.97;4.00;;;7.30;1.00;;;;;;4935464;29;20804;-78
2021/04/04 07:22:07;;;;;;;9.63;4.93;;;7.50;1.00;;;;;;4948409;29;20454;-78
2021/04/04 07:25:07;;;;;;;10.77;4.03;;;7.70;1.00;;;;;;4954887;29;20411;-78
2021/04/04 07:28:07;;;;;;;14.77;3.80;;;7.70;1.00;;;;;;4954465;29;20513;-78
2021/04/04 07:30:42;;;;;;;14.60;4.60;;;7.80;1.00;;;;;;4977384;28;20429;-78
2021/04/04 07:33:45;;;;;;;10.30;4.73;;;8.00;1.00;;;;;;4973680;28;20422;-78
2021/04/04 07:36:50;;;;;;;13.13;4.90;;;8.20;1.00;;;;;;4974100;28;20446;-78
2021/04/04 07:39:53;;;;;;;15.07;4.63;;;8.20;1.00;;;;;;5054520;28;20402;-77
2021/04/04 07:42:44;;;;;;;11.70;4.17;;;8.30;1.00;;;;;;5071214;28;20479;-77
2021/04/04 07:45:11;;;;;;;26.40;6.07;;;8.30;1.00;;;;;;5073083;28;20393;-76
2021/04/04 07:48:23;;;;;;;11.17;4.20;;;8.40;1.00;;;;;;5056648;28;20406;-79
2021/04/04 07:51:23;;;;;;;10.70;4.37;;;8.50;1.00;;;;;;5070686;28;20443;-75
2021/04/04 07:54:37;;;;;;;7.73;4.00;;;8.60;1.00;;;;;;4993318;28;20916;-77
2021/04/04 07:57:26;;;;;;;11.63;4.33;;;8.70;1.00;;;;;;4992918;28;20429;-78
2021/04/04 08:00:10;;;;;;;11.30;4.40;;;8.70;1.00;;;;;;4992685;28;20397;-78
2021/04/04 08:03:10;;;;;;;13.73;4.07;;;8.70;1.00;;;;;;4992608;28;20506;-78
2021/04/04 08:05:41;;;;;;;10.00;4.67;;;8.80;1.00;;;;;;4999568;28;20930;-77
2021/04/04 08:11:52;;;;;;;8.80;4.43;;;8.90;1.00;;;;;;4992181;28;20400;-79
2021/04/04 08:14:23;;;;;;;11.00;4.43;;;9.00;1.00;;;;;;4993497;28;20421;-76
2021/04/04 08:16:55;;;;;;;8.50;4.43;;;9.20;1.00;;;;;;4992881;28;20779;-77
2021/04/04 08:19:21;;;;;;;15.23;5.60;;;9.20;1.00;;;;;;4992062;28;20432;-74
2021/04/04 08:22:10;;;;;;;18.33;5.33;;;9.10;1.00;;;;;;4992095;28;20514;-83
2021/04/04 08:24:44;;;;;;;14.83;4.73;;;9.30;1.00;;;;;;4992777;28;20188;-73
2021/04/04 08:27:23;;;;;;;18.50;5.47;;;9.40;1.00;;;;;;4991966;28;20955;-73
2021/04/04 08:30:06;;;;;;;13.33;4.90;;;9.60;1.00;;;;;;5033763;28;20882;-73
2021/04/04 08:32:53;;;;;;;22.63;5.60;;;9.60;1.00;;;;;;5063091;28;20417;-73
2021/04/04 08:35:25;;;;;;;18.60;5.00;;;9.60;1.00;;;;;;5073032;28;20390;-73
2021/04/04 08:38:08;;;;;;;15.43;5.07;;;9.70;1.00;;;;;;5053311;28;20391;-73
2021/04/04 08:40:38;;;;;;;15.70;5.50;;;9.90;1.00;;;;;;5053841;28;20489;-73
2021/04/04 08:43:04;;;;;;;21.47;6.30;;;10.00;1.00;;;;;;5053528;28;20392;-73
2021/04/04 08:46:12;;;;;;;10.53;4.87;;;10.00;1.00;;;;;;5053434;28;20394;-73
2021/04/04 08:48:39;;;;;;;10.60;4.97;;;10.20;1.00;;;;;;5054392;28;20429;-72
2021/04/04 08:51:11;;;;;;;13.30;4.77;;;10.20;1.00;;;;;;5066597;28;20425;-72
2021/04/04 08:53:44;;;;;;;9.43;4.80;;;10.40;1.00;;;;;;5072090;28;20900;-72
2021/04/04 08:56:13;;;;;;;8.83;4.83;;;10.30;1.00;;;;;;5053612;28;20394;-74
2021/04/04 08:58:42;;;;;;;14.90;5.13;;;10.40;1.00;;;;;;5055746;28;21000;-74
2021/04/04 09:01:34;;;;;;;11.17;4.70;;;10.40;1.00;;;;;;5073299;28;20454;-74
2021/04/04 09:04:05;;;;;;;13.43;4.97;;;10.70;1.00;;;;;;5072767;28;20912;-74
2021/04/04 09:06:40;;;;;;;17.73;5.37;;;11.00;1.00;;;;;;5073176;28;20386;-74
2021/04/04 09:09:18;;;;;;;17.40;5.40;;;11.10;1.00;;;;;;5068183;28;20463;-75
2021/04/04 09:11:49;;;;;;;9.90;4.90;;;11.30;1.00;;;;;;5073493;28;20403;-72
2021/04/04 09:14:17;;;;;;;10.53;5.07;;;11.20;1.00;;;;;;5070001;28;20980;-72
2021/04/04 09:16:53;;;;;;;11.87;5.30;;;11.40;1.00;;;;;;5057496;28;20429;-72
2021/04/04 09:19:34;;;;;;;22.13;5.27;;;11.20;1.00;;;;;;5057518;28;20438;-72
2021/04/04 09:22:07;;;;;;;18.40;6.40;;;11.00;1.00;;;;;;5058391;28;20993;-72
2021/04/04 09:24:45;;;;;;;23.33;7.30;;;11.00;1.00;;;;;;5070339;28;20399;-73
2021/04/04 09:27:12;;;;;;;13.53;5.70;;;11.20;1.00;;;;;;5076523;28;20387;-74
2021/04/04 09:29:39;;;;;;;15.47;6.47;;;11.40;1.00;;;;;;5075147;28;20413;-74
2021/04/04 09:32:13;;;;;;;28.77;7.27;;;11.70;1.00;;;;;;5068891;28;20436;-74
2021/04/04 09:34:42;;;;;;;14.37;5.70;;;11.90;1.00;;;;;;5062900;28;20807;-74
2021/04/04 09:37:08;;;;;;;16.73;6.47;;;12.20;1.00;;;;;;5075680;28;20431;-74
2021/04/04 09:39:36;;;;;;;19.50;6.47;;;12.30;1.00;;;;;;5074983;28;20482;-74
2021/04/04 09:42:03;;;;;;;14.53;6.37;;;12.60;1.00;;;;;;5076653;28;20953;-72
2021/04/04 09:44:30;;;;;;;15.63;5.77;;;12.80;1.00;;;;;;5074830;28;20543;-73
2021/04/04 09:46:59;;;;;;;21.13;6.97;;;12.70;1.00;;;;;;5058433;28;20417;-73
2021/04/04 09:49:48;;;;;;;14.77;6.00;;;13.00;1.00;;;;;;5082634;28;20429;-73
2021/04/04 09:52:27;;;;;;;18.23;6.33;;;13.30;1.00;;;;;;5073098;28;20486;-73
2021/04/04 09:55:11;;;;;;;19.40;6.37;;;13.50;1.00;;;;;;5074778;28;20359;-73
2021/04/04 09:57:51;;;;;;;15.33;5.77;;;13.10;1.00;;;;;;5056324;28;20440;-74
2021/04/04 10:00:19;;;;;;;11.30;5.77;;;13.20;1.00;;;;;;5069466;28;20809;-74
2021/04/04 10:03:07;;;;;;;15.50;6.67;;;13.20;1.00;;;;;;5056285;28;20990;-74
2021/04/04 10:05:40;;;;;;;14.70;7.20;;;13.20;1.00;;;;;;5072954;28;20777;-74
2021/04/04 10:08:14;;;;;;;18.00;7.50;;;13.40;1.00;;;;;;5074248;28;20417;-74
2021/04/04 10:10:51;;;;;;;14.00;6.80;;;13.40;1.00;;;;;;5074574;28;20436;-72
2021/04/04 10:13:22;;;;;;;20.93;6.97;;;13.60;1.00;;;;;;5075813;28;20809;-72
2021/04/04 10:15:49;;;;;;;20.00;7.53;;;13.80;1.00;;;;;;5075633;28;20413;-72
2021/04/04 10:18:18;;;;;;;20.80;7.70;;;14.00;1.00;;;;;;5075722;28;20393;-73
2021/04/04 10:20:51;;;;;;;22.03;6.67;;;14.10;1.00;;;;;;5075248;28;20443;-72
2021/04/04 10:23:18;;;;;;;11.07;6.47;;;14.20;1.00;;;;;;5075711;28;20356;-73
2021/04/04 10:26:00;;;;;;;14.57;6.67;;;14.20;1.00;;;;;;5075627;28;20389;-74
2021/04/04 10:28:48;;;;;;;23.00;6.10;;;14.10;1.00;;;;;;5075593;28;20393;-74
2021/04/04 10:31:16;;;;;;;10.50;5.60;;;13.80;1.00;;;;;;5056879;28;20392;-74
2021/04/04 10:33:42;;;;;;;16.10;6.20;;;13.70;1.00;;;;;;5055398;28;20414;-74
2021/04/04 10:36:13;;;;;;;11.83;5.60;;;13.90;1.00;;;;;;5055479;28;20417;-75
2021/04/04 10:38:39;;;;;;;14.40;6.30;;;13.90;1.00;;;;;;5055240;28;20419;-75
2021/04/04 10:41:05;;;;;;;13.10;5.03;;;13.90;1.00;;;;;;5078972;28;20879;-75
2021/04/04 10:43:43;;;;;;;26.73;6.57;;;13.70;1.00;;;;;;5091519;28;20426;-74
2021/04/04 10:46:17;;;;;;;16.27;5.00;;;13.40;1.00;;;;;;5075303;28;20428;-74
2021/04/04 10:48:44;;;;;;;13.63;5.83;;;;;;;;;;5074703;28;20409;-73
2021/04/04 10:51:13;;;;;;;11.73;5.10;;;13.20;1.00;;;;;;5073753;28;20433;-73
2021/04/04 10:53:39;;;;;;;15.53;6.10;;;13.50;1.00;;;;;;5074650;28;20471;-74
2021/04/04 10:56:06;;;;;;;19.17;6.10;;;13.80;1.00;;;;;;5073709;28;20762;-73
2021/04/04 10:58:32;;;;;;;11.40;5.60;;;13.50;1.00;;;;;;5058096;28;20404;-74
2021/04/04 11:01:04;;;;;;;22.97;5.83;;;13.50;1.00;;;;;;5058606;28;20432;-73
2021/04/04 11:03:31;;;;;;;14.87;5.43;;;13.20;1.00;;;;;;5074632;28;20393;-74
2021/04/04 11:05:58;;;;;;;17.27;5.40;;;13.30;1.00;;;;;;5060888;28;20778;-73
2021/04/04 11:08:24;;;;;;;13.83;5.00;;;13.10;1.00;;;;;;5054896;28;20379;-73
2021/04/04 11:10:51;;;;;;;16.93;6.37;;;13.00;1.00;;;;;;5057810;28;20413;-72
2021/04/04 11:13:18;;;;;;;10.30;5.47;;;12.90;1.00;;;;;;5074758;28;20183;-72
2021/04/04 11:16:07;;;;;;;13.70;5.37;;;13.10;1.00;;;;;;5059518;28;20418;-72
2021/04/04 11:18:47;;;;;;;15.87;4.70;;;13.20;1.00;;;;;;5066850;28;20395;-72
2021/04/04 11:21:21;;;;;;;14.33;5.50;;;13.30;1.00;;;;;;5060548;28;20472;-73
2021/04/04 11:23:50;;;;;;;22.13;5.80;;;13.60;1.00;;;;;;5074067;28;20420;-73
2021/04/04 11:26:30;;;;;;;10.60;4.70;;;13.50;1.00;;;;;;5061140;28;20419;-74
2021/04/04 11:29:16;;;;;;;21.90;5.80;;;13.30;1.00;;;;;;5064505;28;20425;-73
2021/04/04 11:31:44;;;;;;;19.50;6.30;;;13.40;1.00;;;;;;5074067;28;20872;-73
2021/04/04 11:34:23;;;;;;;8.60;5.30;;;13.50;1.00;;;;;;5071044;28;20424;-73
2021/04/04 11:36:49;;;;;;;15.93;5.90;;;13.40;1.00;;;;;;5066109;28;20418;-73
2021/04/04 11:39:15;;;;;;;14.67;5.10;;;;;;;;;;5054278;28;20388;-73
2021/04/04 11:42:00;;;;;;;15.03;6.10;;;13.50;1.00;;;;;;5082581;28;20456;-73
2021/04/04 11:44:32;;;;;;;12.73;5.00;;;13.60;1.00;;;;;;5060414;28;20414;-72
2021/04/04 11:51:07;;;;;;;11.10;5.83;;;13.60;1.00;;;;;;5054355;28;20370;-78
2021/04/04 11:53:41;;;;;;;21.13;5.27;;;;;;;;;;5068106;28;20414;-73
2021/04/04 11:56:30;;;;;;;19.00;6.60;;;13.80;1.00;;;;;;5068057;28;20436;-73
2021/04/04 11:58:56;;;;;;;18.27;5.77;;;13.90;1.00;;;;;;5068270;28;20481;-76
2021/04/04 12:01:22;;;;;;;19.20;6.43;;;;;;;;;;5073140;28;20463;-75
2021/04/04 12:03:48;;;;;;;17.87;5.93;;;14.00;1.00;;;;;;5072779;28;20186;-75
2021/04/04 12:06:14;;;;;;;15.63;5.73;;;14.00;1.00;;;;;;5073162;28;20417;-75
2021/04/04 12:08:51;;;;;;;16.10;5.50;;;13.70;1.00;;;;;;5072892;28;20181;-75
2021/04/04 12:11:19;;;;;;;13.07;5.47;;;;;;;;;;5072178;28;20432;-75
2021/04/04 12:13:59;;;;;;;20.63;7.13;;;13.60;1.00;;;;;;5065854;28;20441;-75
2021/04/04 12:16:58;;;;;;;25.63;6.30;;;13.40;1.00;;;;;;5067369;28;20501;-75
2021/04/04 12:19:28;;;;;;;18.97;6.53;;;13.50;1.00;;;;;;5030295;28;20466;-75
2021/04/04 12:21:57;;;;;;;10.63;5.63;;;13.40;1.00;;;;;;5029810;28;20477;-75
2021/04/04 12:24:58;;;;;;;22.03;6.50;;;13.40;1.00;;;;;;5027872;28;20423;-75
2021/04/04 12:27:27;;;;;;;22.27;6.00;;;13.50;1.00;;;;;;4971193;28;20445;-75
2021/04/04 12:29:57;;;;;;;15.83;5.13;;;13.50;1.00;;;;;;4977975;28;20442;-75
2021/04/04 12:32:25;;;;;;;14.97;6.17;;;13.20;1.00;;;;;;4971978;28;20441;-74
2021/04/04 12:34:54;;;;;;;24.07;6.50;;;13.00;1.00;;;;;;4973571;28;20441;-75
2021/04/04 12:37:22;;;;;;;17.87;6.10;;;12.90;1.00;;;;;;4971842;28;20914;-74
2021/04/04 12:39:48;;;;;;;18.90;6.10;;;12.90;1.00;;;;;;4976457;28;20489;-75
2021/04/04 12:42:17;;;;;;;24.03;6.93;;;13.00;1.00;;;;;;4971525;28;20523;-74
2021/04/04 12:44:45;;;;;;;29.40;6.30;;;12.90;1.00;;;;;;4971703;28;20929;-75
2021/04/04 12:47:13;;;;;;;19.17;6.50;;;13.00;1.00;;;;;;4969125;28;20437;-75
2021/04/04 12:49:54;;;;;;;13.47;5.67;;;13.00;1.00;;;;;;4969561;28;20430;-75
2021/04/04 12:52:46;;;;;;;17.50;5.40;;;12.80;1.00;;;;;;4969291;28;20457;-75
2021/04/04 12:55:14;;;;;;;18.87;6.77;;;12.80;1.00;;;;;;4995781;28;20446;-75
2021/04/04 12:57:46;;;;;;;17.10;5.93;;;12.90;1.00;;;;;;4996038;28;20828;-75
2021/04/04 13:00:21;;;;;;;18.77;6.77;;;12.90;1.00;;;;;;5025471;28;20502;-75
2021/04/04 13:03:00;;;;;;;25.63;6.60;;;12.90;1.00;;;;;;5033674;28;20561;-75
2021/04/04 13:05:32;;;;;;;22.70;6.80;;;12.90;1.00;;;;;;5070067;28;20457;-75
2021/04/04 13:07:58;;;;;;;12.57;6.70;;;12.90;1.00;;;;;;5068175;28;20500;-75
2021/04/04 13:10:32;;;;;;;17.37;6.50;;;12.80;1.00;;;;;;5075392;28;20456;-75
2021/04/04 13:12:57;;;;;;;29.90;8.23;;;12.80;1.00;;;;;;5070009;28;20405;-75
2021/04/04 13:15:30;;;;;;;18.07;6.07;;;12.80;1.00;;;;;;5070616;28;20980;-75
2021/04/04 13:17:56;;;;;;;14.03;6.17;;;12.90;1.00;;;;;;5076427;28;20194;-75
2021/04/04 13:20:38;;;;;;;22.40;7.60;;;;;;;;;;5075950;28;21000;-75
2021/04/04 13:23:14;;;;;;;25.23;7.70;;;13.00;1.00;;;;;;5068867;28;20433;-75
2021/04/04 13:25:45;;;;;;;16.30;6.90;;;13.00;1.00;;;;;;5069933;28;20458;-75
2021/04/04 13:28:22;;;;;;;22.40;7.57;;;13.00;1.00;;;;;;5076483;28;20445;-75
2021/04/04 13:30:50;;;;;;;19.10;8.20;;;13.00;1.00;;;;;;5075399;28;20833;-75
2021/04/04 13:33:16;;;;;;;16.37;6.40;;;;;;;;;;5076200;28;20783;-75
2021/04/04 13:35:42;;;;;;;24.13;7.60;;;13.10;1.00;;;;;;5075668;28;20411;-75
2021/04/04 13:38:26;;;;;;;23.47;7.77;;;13.20;1.00;;;;;;5076231;28;20416;-76
2021/04/04 13:40:52;;;;;;;25.67;7.73;;;13.10;1.00;;;;;;5075948;28;20457;-75
2021/04/04 13:43:42;;;;;;;26.13;8.00;;;13.00;1.00;;;;;;5076286;28;20432;-76
2021/04/04 13:46:51;;;;;;;16.30;7.70;;;13.10;1.00;;;;;;5075467;28;20429;-76
2021/04/04 13:49:20;;;;;;;13.40;6.13;;;13.10;1.00;;;;;;5013653;28;20439;-75
2021/04/04 13:52:27;;;;;;;15.37;7.10;;;13.20;1.00;;;;;;5007879;28;20448;-75
2021/04/04 13:54:56;;;;;;;25.13;7.50;;;13.10;1.00;;;;;;4973706;28;20419;-74
2021/04/04 13:57:36;;;;;;;18.30;7.33;;;13.20;1.00;;;;;;4974357;28;20456;-75